Majáky - mapa · informace · telemetrie · počasí · zdrojové · status · majáky · zprávy · oběžníky · procházet · pohybující se · Můj účet
Zdrojová volačka:
Ukázat:

Nahrávám beacon pakety...

APRS majáky jsou uloženy 14 dní. Je možné použít divoké karty (*?) po prefixu.

2020-07-03 16:49:26 EDT: VK3RMG-1>UIDIGI: UIDIGI 1.9
2020-07-03 16:49:26 EDT: JG3PIG-1>UIDIGI: UIDIGI 1.9
2020-07-03 16:49:32 EDT: K5WH-8>ID: K5WH-8/R MARATH/D 0/B
2020-07-03 16:49:34 EDT: YC8VFB>CQ: MET PAGI SAHABAT AMSAF
2020-07-03 16:49:36 EDT: SR1NRT>UIDIGI: UIDIGI 1.9
2020-07-03 16:49:36 EDT: KB8UVN-7>ID: Network node (JTSW1)
2020-07-03 16:49:36 EDT: VK4HMD-1>UIDIGI: UIDIGI 1.9
2020-07-03 16:49:38 EDT: CQ0PSS-3>BEACON: *APRS SERRA DA OSSA
2020-07-03 16:49:42 EDT: IR2UGU>BEACON: CRLNet.004 - SysOp IZ2FTR - Tullio - iz2ftr@crlnet.it
2020-07-03 16:49:44 EDT: YAKIMA>ID: YAKIMA/R YKM/N
2020-07-03 16:49:46 EDT: STJOHN>BEACON: 444.80+KS*111111z3916.20N/09454.35WrT151.4 Net Sun 7PM W0ROO
2020-07-03 16:49:49 EDT: N8BHL-7>ID: Network node (DELSW1)
2020-07-03 16:49:49 EDT: LU8FJH-8>ID: Network Node (DMGNOD)
2020-07-03 16:49:51 EDT: WX5II-10>ID: NORTH SAT
2020-07-03 16:49:52 EDT: N6VYT-6>BEACON: Soktokes Mtn Digi N6VYT
2020-07-03 16:49:57 EDT: KA6PTJ-3>BEACON: Tehachapi Digi @ 7600 feet
2020-07-03 16:50:00 EDT: K4WAM-1>ID: K4WAM/R
2020-07-03 16:50:00 EDT: VA3RVH-10>BEACON: Winlink 2000 RMS Packet Server
2020-07-03 16:50:01 EDT: VK3ATM-7>ID: VK3ATM in Parkdale Packet 1200 439.05 Mhz 144.90 Mhz
2020-07-03 16:50:05 EDT: K8OEC-10>BEACON: Ottawa County Skywarn GHN
2020-07-03 16:50:08 EDT: KB8UVN-7>ID: Network node (JTSW1)
2020-07-03 16:50:10 EDT: WHTNY>BEACON: KD5DMT-5 APRS Digipeater
2020-07-03 16:50:25 EDT: YV5LTR>ID: YV5LTR/R YV5LTR-7/N
2020-07-03 16:50:25 EDT: KY4WC-10>ID: KY4WC-10/R KY4WC-1/B KY4WC-7/N
2020-07-03 16:50:28 EDT: K3GJ-13>BEACON: K3GJ-13 APRS DIGIPETER
2020-07-03 16:50:29 EDT: VE7RYF-8>ID: Network Node (497RYF)
2020-07-03 16:50:31 EDT: VE3SGB>BEACON: SGBARC FILL IN DIGIPEATER
2020-07-03 16:50:33 EDT: K8VEB-5>ID: Node (MIPORT) K8VEB-5 BPQ Net/Rom Switch Charlotte Michigan
2020-07-03 16:50:35 EDT: LU1HVK-4>ID: Netrom Node en Leones Cba
2020-07-03 16:50:36 EDT: VA7DXH>ID: Ladysmith APRS iGate (Fill-in)
2020-07-03 16:49:41 EDT: W7MOT-4>BEACON: WHTNKS W7MOT-4 DIGIPEATER, White Tanks, AZ
2020-07-03 16:49:53 EDT: W5MCC-7>ID: SELCOM New Orleans APRS iGate. Connect to .
2020-07-03 16:49:54 EDT: IR3CA-2>UIDIGI: UIDIGI 1.9
2020-07-03 16:49:56 EDT: VK3REB-1>UIDIGI: UIDIGI 1.9
2020-07-03 16:49:59 EDT: LW9HYU-4>ID: [FF78US12FP] BPQ NODE PACKET (BBS CALL LW9HYU)
2020-07-03 16:50:07 EDT: DISABL>ID: Network Node
2020-07-03 16:50:33 EDT: FARS-2>BEACON: 147.15+FC*111111z4943.97N/11257.56Wr VE6UP
2020-07-03 16:50:33 EDT: W9ECG-7>ID: W9ECG-7 BPQ Net/Rom Switch
2020-07-03 16:50:36 EDT: KP4IP-2>BEACON: KP4IP APRS DIGI WWW.KP4IP.COM
2020-07-03 16:50:41 EDT: WAHAT>BEACON: N7LZM APRS Digipeater Wahatis Peak, WA
2020-07-03 16:50:36 EDT: N0LNE-6>ID: N0LNE/R
2020-07-03 16:50:37 EDT: WX5II-12>ID: WX5II-12/R
2020-07-03 16:50:38 EDT: N8BHL-7>ID: Network node (DELSW1)
2020-07-03 16:50:38 EDT: KC5YSM-5>BEACON: Local RPTR: W5RIN (BARC) 146.700 - PL 107.2
2020-07-03 16:50:39 EDT: 9A3XK>BEACON: CRLNet.108 - SysOp 9a3XK & 9a7kxp-Internet via DJWIRELES http://djw.hr/
2020-07-03 16:50:41 EDT: SZ2RWM-11>UIDIGI: UIDIGI 1.9
2020-07-03 16:50:45 EDT: N7ER-10>BEACON: N7ER-10 VHF UHF So Whidbey/N7ER-10 VHF UHF So Whidbey
2020-07-03 16:50:48 EDT: W3TWA-3>CQ: w3twa-3 digi
2020-07-03 16:50:48 EDT: IZ4EFV>ID: IZ4EFV/R
2020-07-03 16:50:48 EDT: 9A3XK>BEACON: Power 9W Gain 3dB Height 240m Ant omni
< předchozí
User guide · FAQ · blog · Diskusní skupina · linky do aprs.fi · AIS stanoviště · Service status · Statistika databáze · Propagace na aprs.fi · Technické dataily · API · Změny · plánované změny · Pozornosti a poděkování · Podmínky Služby · iPhone/iPad APRS